Allendale, Michigan
Current Conditions -  °F | °C
As of 6:53 AM on Tuesday 21 Oct 2014 (Local Time) from KBIV Reporting Station
Overcast Overcast  
Wind Chill: 47°   Ceiling: 3700
Heat Index: 49°   Visibility: 10mi
Dew Point: 42°   Wind: 5mph
Humidity: 77%   Direction: 330°NNW
Pressure: 30.03"   Gusts: NA
Location:  42.97°N, 85.95°W
Report Text: KBIV 211053Z AUTO 33004KT 10SM OVC037 09/06 A3003 RMK AO2 RAE00B40E50 SLPNO P0000 T00940056
Loading
Personal Weather Stations






























Interactive Weather Map
Tropical Storm Tracking
New forecast layout! Learn more

10-Day Weather Forecast

Advertisements
Track Severe Weather on mobile